createdAt,value
2019-05-06T00:00:59.149Z,56.03
2019-05-06T00:01:54.809Z,56.75
2019-05-06T00:02:54.802Z,56.95
2019-05-06T00:03:54.765Z,56.65
2019-05-06T00:04:54.759Z,56.44
2019-05-06T00:05:54.745Z,56.85
2019-05-06T00:06:55.018Z,56.23
2019-05-06T00:07:54.935Z,56.10
2019-05-06T00:08:54.737Z,56.41
2019-05-06T00:09:54.717Z,56.21
2019-05-06T00:10:54.699Z,56.00
2019-05-06T00:11:54.719Z,56.10
2019-05-06T00:12:54.683Z,56.21
2019-05-06T00:13:54.657Z,56.62
2019-05-06T00:14:54.665Z,56.13
2019-05-06T00:15:54.677Z,56.31
2019-05-06T00:16:56.775Z,56.72
2019-05-06T00:17:54.631Z,56.31
2019-05-06T00:18:54.600Z,56.62
2019-05-06T00:19:57.035Z,56.54
2019-05-06T00:20:57.497Z,56.34
2019-05-06T00:21:54.574Z,56.23
2019-05-06T00:22:54.739Z,57.16
2019-05-06T00:23:54.881Z,57.37
2019-05-06T00:24:54.827Z,57.57
2019-05-06T00:25:54.537Z,57.37
2019-05-06T00:26:57.393Z,58.19
2019-05-06T00:27:54.516Z,57.78
2019-05-06T00:28:54.498Z,57.81
2019-05-06T00:29:54.986Z,57.70
2019-05-06T00:30:58.616Z,57.70
2019-05-06T00:31:55.451Z,57.70
2019-05-06T00:32:54.477Z,58.29
2019-05-06T00:33:54.430Z,58.42
2019-05-06T00:34:54.733Z,58.42
2019-05-06T00:35:54.414Z,58.40
2019-05-06T00:36:54.642Z,58.22
2019-05-06T00:37:54.418Z,58.42
2019-05-06T00:38:54.395Z,57.91
2019-05-06T00:39:54.369Z,58.11
2019-05-06T00:40:54.426Z,58.22
2019-05-06T00:41:54.352Z,58.11
2019-05-06T00:42:54.351Z,58.42
2019-05-06T00:43:54.725Z,58.11
2019-05-06T00:44:54.308Z,58.22
2019-05-06T00:45:54.308Z,58.94
2019-05-06T00:46:54.631Z,59.04
2019-05-06T00:47:54.305Z,58.22
2019-05-06T00:48:54.464Z,58.22
2019-05-06T00:49:54.721Z,58.22
2019-05-06T00:50:54.242Z,57.91
2019-05-06T00:51:55.014Z,57.81
2019-05-06T00:52:54.242Z,59.17
2019-05-06T00:53:54.459Z,58.94
2019-05-06T00:54:54.728Z,59.14
2019-05-06T00:55:54.187Z,58.84
2019-05-06T00:56:54.242Z,58.11
2019-05-06T00:57:54.576Z,57.91
2019-05-06T00:58:54.509Z,58.32
2019-05-06T00:59:54.149Z,58.84
2019-05-06T01:00:54.159Z,58.73
2019-05-06T01:01:54.117Z,58.22
2019-05-06T01:02:54.426Z,57.91
2019-05-06T01:03:54.106Z,57.91
2019-05-06T01:04:54.327Z,57.39
2019-05-06T01:05:54.431Z,58.42
2019-05-06T01:06:54.475Z,58.42
2019-05-06T01:07:54.896Z,58.42
2019-05-06T01:08:54.501Z,58.32
2019-05-06T01:09:54.248Z,58.42
2019-05-06T01:10:54.658Z,58.42
2019-05-06T01:11:54.206Z,58.42
2019-05-06T01:12:54.472Z,58.11
2019-05-06T01:13:54.526Z,58.22
2019-05-06T01:14:54.490Z,58.94
2019-05-06T01:15:54.775Z,58.11
2019-05-06T01:16:54.768Z,57.70
2019-05-06T01:17:53.944Z,57.68
2019-05-06T01:18:54.213Z,57.16
2019-05-06T01:19:54.205Z,58.01
2019-05-06T01:20:54.205Z,57.78
2019-05-06T01:21:54.086Z,57.47
2019-05-06T01:22:54.419Z,57.60
2019-05-06T01:23:54.417Z,57.70
2019-05-06T01:24:55.723Z,57.68
2019-05-06T01:25:54.597Z,57.60
2019-05-06T01:26:53.860Z,58.22
2019-05-06T01:27:54.085Z,57.91
2019-05-06T01:28:54.611Z,57.78
2019-05-06T01:29:54.898Z,57.68
2019-05-06T01:30:53.809Z,57.37
2019-05-06T01:31:54.431Z,57.81
2019-05-06T01:32:54.385Z,57.68
2019-05-06T01:33:53.808Z,57.98
2019-05-06T01:34:53.869Z,57.57
2019-05-06T01:35:54.265Z,57.81
2019-05-06T01:36:54.512Z,57.18
2019-05-06T01:37:54.540Z,57.60
2019-05-06T01:38:53.732Z,57.39
2019-05-06T01:39:54.199Z,57.60
2019-05-06T01:40:54.663Z,58.22
2019-05-06T01:41:53.774Z,57.91
2019-05-06T01:42:54.159Z,58.32
2019-05-06T01:43:54.632Z,58.42
2019-05-06T01:44:53.935Z,58.11
2019-05-06T01:45:53.778Z,58.42
2019-05-06T01:46:54.172Z,58.11
2019-05-06T01:47:54.423Z,59.56
2019-05-06T01:48:53.756Z,58.84
2019-05-06T01:49:53.879Z,58.94
2019-05-06T01:50:54.079Z,57.83
2019-05-06T01:51:54.565Z,58.97
2019-05-06T01:52:54.032Z,59.38
2019-05-06T01:53:54.411Z,58.86
2019-05-06T01:54:54.261Z,59.79
2019-05-06T01:55:54.600Z,60.00
2019-05-06T01:56:53.814Z,59.69
2019-05-06T01:57:54.563Z,59.69
2019-05-06T01:58:53.737Z,59.28
2019-05-06T01:59:54.158Z,59.17
2019-05-06T02:00:54.473Z,59.58
2019-05-06T02:01:58.189Z,59.79
2019-05-06T02:02:54.812Z,59.72
2019-05-06T02:03:53.861Z,59.51
2019-05-06T02:04:54.127Z,59.82
2019-05-06T02:05:54.012Z,60.02
2019-05-06T02:06:54.592Z,60.54
2019-05-06T02:07:55.033Z,60.33
2019-05-06T02:08:54.056Z,60.41
2019-05-06T02:09:54.263Z,60.23
2019-05-06T02:10:54.562Z,60.44
2019-05-06T02:11:53.751Z,60.02
2019-05-06T02:12:54.048Z,60.85
2019-05-06T02:13:53.848Z,60.75
2019-05-06T02:14:54.332Z,60.00
2019-05-06T02:15:54.780Z,60.72
2019-05-06T02:16:54.560Z,60.51
2019-05-06T02:17:55.136Z,61.26
2019-05-06T02:18:54.011Z,60.23
2019-05-06T02:19:54.665Z,60.54
2019-05-06T02:20:53.826Z,60.33
2019-05-06T02:21:54.247Z,60.75
2019-05-06T02:22:53.858Z,60.85
2019-05-06T02:23:53.573Z,61.05
2019-05-06T02:24:53.647Z,60.85
2019-05-06T02:25:53.994Z,61.05
2019-05-06T02:26:54.266Z,61.16
2019-05-06T02:27:54.153Z,61.40
2019-05-06T02:28:54.519Z,60.85
2019-05-06T02:29:54.275Z,60.54
2019-05-06T02:30:54.790Z,60.64
2019-05-06T02:31:56.589Z,60.44
2019-05-06T02:32:55.774Z,60.33
2019-05-06T02:33:55.882Z,60.85
2019-05-06T02:34:54.611Z,60.64
2019-05-06T02:35:55.029Z,60.36
2019-05-06T02:36:55.195Z,60.33
2019-05-06T02:37:55.008Z,60.23
2019-05-06T02:38:55.767Z,60.75
2019-05-06T02:39:53.775Z,60.85
2019-05-06T02:40:53.600Z,60.88
2019-05-06T02:41:54.914Z,60.36
2019-05-06T02:42:54.527Z,61.40
2019-05-06T02:43:54.130Z,60.88
2019-05-06T02:44:54.142Z,61.19
2019-05-06T02:45:53.328Z,60.47
2019-05-06T02:46:53.472Z,61.60
2019-05-06T02:47:53.815Z,61.60
2019-05-06T02:48:54.335Z,61.40
2019-05-06T02:49:53.632Z,61.19
2019-05-06T02:50:53.702Z,61.40
2019-05-06T02:51:53.501Z,61.60
2019-05-06T02:52:53.726Z,62.55
2019-05-06T02:53:53.805Z,62.25
2019-05-06T02:54:53.686Z,62.04
2019-05-06T02:55:53.382Z,62.25
2019-05-06T02:56:53.321Z,62.35
2019-05-06T02:57:53.561Z,62.69
2019-05-06T02:58:53.634Z,62.76
2019-05-06T02:59:55.179Z,62.76
2019-05-06T03:00:53.844Z,63.28
2019-05-06T03:01:53.896Z,63.28
2019-05-06T03:02:54.056Z,62.87
2019-05-06T03:03:53.670Z,63.18
2019-05-06T03:04:53.029Z,63.18
2019-05-06T03:05:53.466Z,62.66
2019-05-06T03:06:53.409Z,62.46
2019-05-06T03:07:56.947Z,63.49
2019-05-06T03:08:54.075Z,63.39
2019-05-06T03:09:53.417Z,63.18
2019-05-06T03:10:53.637Z,62.97
2019-05-06T03:11:54.062Z,63.39
2019-05-06T03:12:53.744Z,63.31
2019-05-06T03:13:53.710Z,63.18
2019-05-06T03:14:53.489Z,63.07
2019-05-06T03:15:54.103Z,63.00
2019-05-06T03:16:53.933Z,63.82
2019-05-06T03:17:55.409Z,63.62
2019-05-06T03:18:53.302Z,63.72
2019-05-06T03:19:52.760Z,64.34
2019-05-06T03:20:53.309Z,64.86
2019-05-06T03:21:54.671Z,64.86
2019-05-06T03:22:54.430Z,65.41
2019-05-06T03:23:54.318Z,65.61
2019-05-06T03:24:54.467Z,64.99
2019-05-06T03:25:53.417Z,64.89
2019-05-06T03:26:53.426Z,64.86
2019-05-06T03:27:53.271Z,64.99
2019-05-06T03:28:53.515Z,65.20
2019-05-06T03:29:53.728Z,66.23
2019-05-06T03:30:56.576Z,65.92
2019-05-06T03:31:56.561Z,66.13
2019-05-06T03:33:27.730Z,64.99
2019-05-06T03:34:16.118Z,65.51
2019-05-06T03:35:15.464Z,65.51
2019-05-06T03:36:06.299Z,66.13
2019-05-06T03:36:56.137Z,66.44
2019-05-06T03:37:53.402Z,66.85
2019-05-06T03:38:53.597Z,66.44
2019-05-06T03:39:53.050Z,66.75
2019-05-06T03:40:53.802Z,66.85
2019-05-06T03:41:53.684Z,66.64
2019-05-06T03:42:53.866Z,66.44
2019-05-06T03:43:54.421Z,67.27
2019-05-06T03:44:53.252Z,67.27
2019-05-06T03:45:53.693Z,66.85
2019-05-06T03:46:53.939Z,66.88
2019-05-06T03:47:54.288Z,67.16
2019-05-06T03:48:53.029Z,67.37
2019-05-06T03:49:54.563Z,66.75
2019-05-06T03:50:55.680Z,66.88
2019-05-06T03:51:56.009Z,66.78
2019-05-06T03:52:56.147Z,67.88
2019-05-06T03:53:54.307Z,67.37
2019-05-06T03:54:53.626Z,67.68
2019-05-06T03:55:53.864Z,67.68
2019-05-06T03:56:53.713Z,68.12
2019-05-06T03:57:53.880Z,68.09
2019-05-06T03:58:53.653Z,67.68
2019-05-06T03:59:53.011Z,67.68
2019-05-06T04:00:53.047Z,67.58
2019-05-06T04:01:53.474Z,67.27
2019-05-06T04:02:53.550Z,67.58
2019-05-06T04:03:56.474Z,67.61
2019-05-06T04:04:56.488Z,67.71
2019-05-06T04:05:52.554Z,67.61
2019-05-06T04:06:53.721Z,67.91
2019-05-06T04:07:53.012Z,67.61
2019-05-06T04:08:52.864Z,67.71
2019-05-06T04:09:53.599Z,67.37
2019-05-06T04:10:53.740Z,66.96
2019-05-06T04:11:54.088Z,67.37
2019-05-06T04:12:53.573Z,67.68
2019-05-06T04:13:53.447Z,67.91
2019-05-06T04:14:53.988Z,68.33
2019-05-06T04:15:53.932Z,68.74
2019-05-06T04:16:53.230Z,68.43
2019-05-06T04:17:53.820Z,68.46
2019-05-06T04:18:53.849Z,69.29
2019-05-06T04:19:53.440Z,68.98
2019-05-06T04:20:53.189Z,69.50
2019-05-06T04:21:53.202Z,69.50
2019-05-06T04:22:53.179Z,69.81
2019-05-06T04:23:53.463Z,69.84
2019-05-06T04:24:53.893Z,69.74
2019-05-06T04:25:52.771Z,70.01
2019-05-06T04:26:53.359Z,69.71
2019-05-06T04:27:53.788Z,69.29
2019-05-06T04:28:53.387Z,69.26
2019-05-06T04:29:54.307Z,68.74
2019-05-06T04:30:54.587Z,68.43
2019-05-06T04:31:53.993Z,68.64
2019-05-06T04:32:53.144Z,68.30
2019-05-06T04:34:08.519Z,69.67
2019-05-06T04:34:53.615Z,70.09
2019-05-06T04:35:54.129Z,69.26
2019-05-06T04:36:53.318Z,68.19
2019-05-06T04:37:53.910Z,68.40
2019-05-06T04:38:53.945Z,68.61
2019-05-06T04:39:53.186Z,68.61
2019-05-06T04:40:53.901Z,68.51
2019-05-06T04:41:53.935Z,68.51
2019-05-06T04:42:52.759Z,68.19
2019-05-06T04:43:53.345Z,68.61
2019-05-06T04:44:53.122Z,69.23
2019-05-06T04:45:53.987Z,69.16
2019-05-06T04:46:54.371Z,68.95
2019-05-06T04:47:53.736Z,68.95
2019-05-06T04:48:53.870Z,69.64
2019-05-06T04:49:53.204Z,69.47
2019-05-06T04:50:53.637Z,69.57
2019-05-06T04:51:54.092Z,69.67
2019-05-06T04:52:53.609Z,69.54
2019-05-06T04:53:53.667Z,69.54
2019-05-06T04:54:53.452Z,69.57
2019-05-06T04:55:53.893Z,69.74
2019-05-06T04:56:53.666Z,69.47
2019-05-06T04:57:53.679Z,69.47
2019-05-06T04:58:53.817Z,69.43
2019-05-06T04:59:53.979Z,69.57
2019-05-06T05:00:53.110Z,69.47
2019-05-06T05:01:53.549Z,69.78
2019-05-06T05:02:54.770Z,69.78
2019-05-06T05:03:53.995Z,69.54
2019-05-06T05:04:52.937Z,69.85
2019-05-06T05:05:52.963Z,69.16
2019-05-06T05:06:52.428Z,69.54
2019-05-06T05:07:53.018Z,69.85
2019-05-06T05:08:53.184Z,69.95
2019-05-06T05:09:53.559Z,69.23
2019-05-06T05:10:53.004Z,69.43
2019-05-06T05:11:53.231Z,69.54
2019-05-06T05:12:52.576Z,69.43
2019-05-06T05:13:53.231Z,69.54
2019-05-06T05:14:51.935Z,69.64
2019-05-06T05:15:52.505Z,69.43
2019-05-06T05:16:52.846Z,69.61
2019-05-06T05:17:52.584Z,69.30
2019-05-06T05:18:53.053Z,69.30
2019-05-06T05:19:52.315Z,69.33
2019-05-06T05:20:52.823Z,69.12
2019-05-06T05:21:52.245Z,69.20
2019-05-06T05:22:52.828Z,69.30
2019-05-06T05:23:52.351Z,68.99
2019-05-06T05:24:52.183Z,68.88
2019-05-06T05:25:52.162Z,68.78
2019-05-06T05:26:52.272Z,68.99
2019-05-06T05:27:52.831Z,68.99
2019-05-06T05:28:53.107Z,69.20
2019-05-06T05:29:52.171Z,69.09
2019-05-06T05:30:52.175Z,69.40
2019-05-06T05:31:52.987Z,69.92
2019-05-06T05:32:52.052Z,69.51
2019-05-06T05:33:52.608Z,69.30
2019-05-06T05:34:52.263Z,69.30
2019-05-06T05:35:52.560Z,68.96
2019-05-06T05:36:52.027Z,69.17
2019-05-06T05:37:52.872Z,69.27
2019-05-06T05:38:52.228Z,68.99
2019-05-06T05:39:52.009Z,68.99
2019-05-06T05:40:52.375Z,69.27
2019-05-06T05:41:52.134Z,69.61
2019-05-06T05:42:52.137Z,69.37
2019-05-06T05:43:52.681Z,69.37
2019-05-06T05:44:52.729Z,69.99
2019-05-06T05:45:52.328Z,69.27
2019-05-06T05:46:52.354Z,68.96
2019-05-06T05:47:52.279Z,68.96
2019-05-06T05:48:51.985Z,68.75
2019-05-06T05:49:52.858Z,68.75
2019-05-06T05:50:52.517Z,69.17
2019-05-06T05:51:51.991Z,69.27
2019-05-06T05:52:51.948Z,69.78
2019-05-06T05:53:52.298Z,69.17
2019-05-06T05:54:51.954Z,68.54
2019-05-06T05:55:52.633Z,68.41
2019-05-06T05:56:52.898Z,68.82
2019-05-06T05:57:51.890Z,67.79
2019-05-06T05:58:53.272Z,67.38
2019-05-06T05:59:52.770Z,67.66
2019-05-06T06:00:52.112Z,67.97
2019-05-06T06:01:52.874Z,67.86
2019-05-06T06:02:53.010Z,67.45
2019-05-06T06:03:52.622Z,67.14
2019-05-06T06:04:57.001Z,66.21
2019-05-06T06:05:52.145Z,66.83
2019-05-06T06:06:52.022Z,67.14
2019-05-06T06:07:52.872Z,67.03
2019-05-06T06:08:52.298Z,66.63
2019-05-06T06:09:52.441Z,66.63
2019-05-06T06:10:52.423Z,67.03
2019-05-06T06:11:52.997Z,66.73
2019-05-06T06:12:52.661Z,66.49
2019-05-06T06:13:52.298Z,66.28
2019-05-06T06:14:53.527Z,65.88
2019-05-06T06:15:52.144Z,66.28
2019-05-06T06:16:52.658Z,66.28
2019-05-06T06:17:51.912Z,66.28
2019-05-06T06:18:52.353Z,66.28
2019-05-06T06:19:50.653Z,66.60
2019-05-06T06:20:52.722Z,66.28
2019-05-06T06:21:52.365Z,66.60
2019-05-06T06:22:52.278Z,66.39
2019-05-06T06:23:52.764Z,67.11
2019-05-06T06:24:52.472Z,66.49
2019-05-06T06:25:52.752Z,66.18
2019-05-06T06:26:52.076Z,67.42
2019-05-06T06:27:52.131Z,66.80
2019-05-06T06:28:52.285Z,66.39
2019-05-06T06:29:52.586Z,66.39
2019-05-06T06:30:52.002Z,66.18
2019-05-06T06:31:52.291Z,66.39
2019-05-06T06:32:52.362Z,66.60
2019-05-06T06:33:52.850Z,66.49
2019-05-06T06:34:52.120Z,66.49
2019-05-06T06:35:51.996Z,66.15
2019-05-06T06:36:52.486Z,66.25
2019-05-06T06:37:52.326Z,65.98
2019-05-06T06:38:52.585Z,66.15
2019-05-06T06:39:52.612Z,65.43
2019-05-06T06:40:53.567Z,65.43
2019-05-06T06:41:51.912Z,65.02
2019-05-06T06:42:52.464Z,65.33
2019-05-06T06:43:52.378Z,65.09
2019-05-06T06:44:52.087Z,65.40
2019-05-06T06:45:50.321Z,64.68
2019-05-06T06:46:52.327Z,64.89
2019-05-06T06:47:51.974Z,65.19
2019-05-06T06:48:52.610Z,64.89
2019-05-06T06:49:50.287Z,64.27
2019-05-06T06:50:52.252Z,64.78
2019-05-06T06:51:50.236Z,64.47
2019-05-06T06:52:52.341Z,64.47
2019-05-06T06:53:50.217Z,63.62
2019-05-06T06:54:52.481Z,63.34
2019-05-06T06:55:52.248Z,63.31
2019-05-06T06:57:03.187Z,63.65
2019-05-06T06:57:51.916Z,62.70
2019-05-06T06:58:50.167Z,62.79
2019-05-06T06:59:52.256Z,63.00
2019-05-06T07:00:50.147Z,62.90
2019-05-06T07:01:50.129Z,63.31
2019-05-06T07:02:52.346Z,63.10
2019-05-06T07:03:50.115Z,63.21
2019-05-06T07:04:52.431Z,62.90
2019-05-06T07:05:50.083Z,63.00
2019-05-06T07:06:50.083Z,63.10
2019-05-06T07:07:50.059Z,63.10
2019-05-06T07:08:51.790Z,61.87
2019-05-06T07:09:50.065Z,61.77
2019-05-06T07:10:50.023Z,60.94
2019-05-06T07:11:52.481Z,61.15
2019-05-06T07:12:50.004Z,60.53
2019-05-06T07:13:49.999Z,60.84
2019-05-06T07:14:52.226Z,61.35
2019-05-06T07:15:51.458Z,60.84
2019-05-06T07:16:49.969Z,60.94
2019-05-06T07:17:49.952Z,61.46
2019-05-06T07:18:52.430Z,60.71
2019-05-06T07:19:49.934Z,60.19
2019-05-06T07:20:49.938Z,60.19
2019-05-06T07:21:52.129Z,60.30
2019-05-06T07:22:49.947Z,60.37
2019-05-06T07:23:49.875Z,60.27
2019-05-06T07:24:49.874Z,60.68
2019-05-06T07:25:49.886Z,59.86
2019-05-06T07:26:52.292Z,59.55
2019-05-06T07:27:49.854Z,59.34
2019-05-06T07:28:49.842Z,58.39
2019-05-06T07:29:52.086Z,58.08
2019-05-06T07:30:52.110Z,57.78
2019-05-06T07:31:49.799Z,57.34
2019-05-06T07:32:49.793Z,57.23
2019-05-06T07:33:52.069Z,56.10
2019-05-06T07:34:49.773Z,56.21
2019-05-06T07:35:49.777Z,57.21
2019-05-06T07:36:49.733Z,57.10
2019-05-06T07:37:49.742Z,56.70
2019-05-06T07:38:49.717Z,55.77
2019-05-06T07:39:52.668Z,55.98
2019-05-06T07:40:49.714Z,56.28
2019-05-06T07:41:49.686Z,55.87
2019-05-06T07:42:49.668Z,55.98
2019-05-06T07:43:49.663Z,55.98
2019-05-06T07:44:52.744Z,55.57
2019-05-06T07:45:49.664Z,55.33
2019-05-06T07:46:49.646Z,55.26
2019-05-06T07:47:49.622Z,54.51
2019-05-06T07:48:51.766Z,54.51
2019-05-06T07:49:49.593Z,54.41
2019-05-06T07:50:49.607Z,54.82
2019-05-06T07:51:49.580Z,54.72
2019-05-06T07:52:49.556Z,54.61
2019-05-06T07:53:49.555Z,54.61
2019-05-06T07:54:49.538Z,55.02
2019-05-06T07:55:49.579Z,54.51
2019-05-06T07:56:49.518Z,54.53
2019-05-06T07:57:50.574Z,55.02
2019-05-06T07:58:49.501Z,54.92
2019-05-06T07:59:49.489Z,54.64
2019-05-06T08:00:49.499Z,55.13
2019-05-06T08:01:49.471Z,54.92
2019-05-06T08:02:49.467Z,54.51
2019-05-06T08:03:49.477Z,54.28
2019-05-06T08:04:49.422Z,53.97
2019-05-06T08:05:55.813Z,53.64
2019-05-06T08:06:52.253Z,53.23
2019-05-06T08:07:49.398Z,53.33
2019-05-06T08:08:49.379Z,53.12
2019-05-06T08:09:49.371Z,53.33
2019-05-06T08:10:49.400Z,53.03
2019-05-06T08:11:49.344Z,54.05
2019-05-06T08:12:49.350Z,54.97
2019-05-06T08:13:49.336Z,54.25
2019-05-06T08:14:49.325Z,54.97
2019-05-06T08:15:49.303Z,52.92
2019-05-06T08:16:49.319Z,52.18
2019-05-06T08:17:49.282Z,52.39
2019-05-06T08:18:49.298Z,52.28
2019-05-06T08:19:49.270Z,51.56
2019-05-06T08:20:49.271Z,52.10
2019-05-06T08:21:49.251Z,52.20
2019-05-06T08:22:49.219Z,52.18
2019-05-06T08:23:49.229Z,52.08
2019-05-06T08:24:49.214Z,51.36
2019-05-06T08:25:49.210Z,51.46
2019-05-06T08:26:49.197Z,51.56
2019-05-06T08:27:49.680Z,51.98
2019-05-06T08:28:49.161Z,51.98
2019-05-06T08:29:49.156Z,51.05
2019-05-06T08:30:49.170Z,51.07
2019-05-06T08:31:49.153Z,51.69
2019-05-06T08:32:49.117Z,51.46
2019-05-06T08:33:49.103Z,51.48
2019-05-06T08:34:49.096Z,51.79
2019-05-06T08:35:49.093Z,50.87
2019-05-06T08:36:49.122Z,51.28
2019-05-06T08:37:49.071Z,51.90
2019-05-06T08:38:49.052Z,51.46
2019-05-06T08:39:49.036Z,50.36
2019-05-06T08:40:49.055Z,49.95
2019-05-06T08:41:49.041Z,50.46
2019-05-06T08:42:49.000Z,50.56
2019-05-06T08:43:49.001Z,51.48
2019-05-06T08:44:49.009Z,51.98
2019-05-06T08:45:48.972Z,50.64
2019-05-06T08:46:48.974Z,50.74
2019-05-06T08:47:48.982Z,51.28
2019-05-06T08:48:48.935Z,51.07
2019-05-06T08:49:49.385Z,51.69
2019-05-06T08:50:48.919Z,51.39
2019-05-06T08:51:48.927Z,51.28
2019-05-06T08:52:48.915Z,50.67
2019-05-06T08:53:48.883Z,50.15
2019-05-06T08:54:48.876Z,50.46
2019-05-06T08:55:48.868Z,50.13
2019-05-06T08:56:48.868Z,50.13
2019-05-06T08:57:48.834Z,49.51
2019-05-06T08:58:48.851Z,49.29
2019-05-06T08:59:48.824Z,49.59
2019-05-06T09:00:48.811Z,49.69
2019-05-06T09:01:48.815Z,49.08
2019-05-06T09:02:48.785Z,48.67
2019-05-06T09:03:48.776Z,49.08
2019-05-06T09:04:48.754Z,48.14
2019-05-06T09:05:48.752Z,48.14
2019-05-06T09:06:48.767Z,48.55
2019-05-06T09:07:48.734Z,48.55
2019-05-06T09:08:48.733Z,47.31
2019-05-06T09:09:48.710Z,47.81
2019-05-06T09:10:48.717Z,47.50
2019-05-06T09:11:48.700Z,47.81
2019-05-06T09:12:48.668Z,47.71
2019-05-06T09:13:48.676Z,47.81
2019-05-06T09:14:48.645Z,47.93
2019-05-06T09:15:48.642Z,48.65
2019-05-06T09:16:50.651Z,48.44
2019-05-06T09:17:48.608Z,47.52
2019-05-06T09:18:48.605Z,48.14
2019-05-06T09:19:48.634Z,48.14
2019-05-06T09:20:48.577Z,48.85
2019-05-06T09:21:48.626Z,48.75
2019-05-06T09:22:48.559Z,48.03
2019-05-06T09:23:48.562Z,48.42
2019-05-06T09:24:48.546Z,48.42
2019-05-06T09:25:48.522Z,47.38
2019-05-06T09:26:48.563Z,46.25
2019-05-06T09:27:48.506Z,46.53
2019-05-06T09:28:48.498Z,46.74
2019-05-06T09:29:48.509Z,45.72
2019-05-06T09:30:48.457Z,46.03
2019-05-06T09:31:48.481Z,45.92
2019-05-06T09:32:48.447Z,45.92
2019-05-06T09:33:48.461Z,46.33
2019-05-06T09:34:48.432Z,46.94
2019-05-06T09:35:48.414Z,46.64
2019-05-06T09:36:52.028Z,46.12
2019-05-06T09:37:49.488Z,45.92
2019-05-06T09:38:48.391Z,46.12
2019-05-06T09:39:48.377Z,46.66
2019-05-06T09:40:48.363Z,46.15
2019-05-06T09:41:49.239Z,45.86
2019-05-06T09:42:48.354Z,46.48
2019-05-06T09:43:48.326Z,46.78
2019-05-06T09:44:50.421Z,45.97
2019-05-06T09:45:48.312Z,46.78
2019-05-06T09:46:48.335Z,46.58
2019-05-06T09:47:48.295Z,46.68
2019-05-06T09:48:48.288Z,45.56
2019-05-06T09:49:48.265Z,46.35
2019-05-06T09:50:48.255Z,45.74
2019-05-06T09:51:48.284Z,45.53
2019-05-06T09:52:48.232Z,46.23
2019-05-06T09:53:48.211Z,46.33
2019-05-06T09:54:48.200Z,44.82
2019-05-06T09:55:48.224Z,44.49
2019-05-06T09:56:48.191Z,44.49
2019-05-06T09:57:48.164Z,43.88
2019-05-06T09:58:48.153Z,44.49
2019-05-06T09:59:48.155Z,44.38
2019-05-06T10:00:48.154Z,43.57
2019-05-06T10:01:48.147Z,43.77
2019-05-06T10:02:49.600Z,42.85
2019-05-06T10:03:48.114Z,42.85
2019-05-06T10:04:48.086Z,42.96
2019-05-06T10:05:48.072Z,42.73
2019-05-06T10:06:56.237Z,42.83
2019-05-06T10:07:49.073Z,43.14
2019-05-06T10:08:48.054Z,42.83
2019-05-06T10:09:48.057Z,42.53
2019-05-06T10:10:56.767Z,43.35
2019-05-06T10:11:49.045Z,42.73
2019-05-06T10:12:48.020Z,42.75
2019-05-06T10:13:47.988Z,43.85
2019-05-06T10:14:47.981Z,43.04
2019-05-06T10:15:47.967Z,42.94
2019-05-06T10:16:47.994Z,41.83
2019-05-06T10:17:47.941Z,42.34
2019-05-06T10:18:47.952Z,42.03
2019-05-06T10:19:47.925Z,42.34
2019-05-06T10:20:47.948Z,42.55
2019-05-06T10:21:47.933Z,42.65
2019-05-06T10:22:47.886Z,41.93
2019-05-06T10:23:47.887Z,42.34
2019-05-06T10:24:47.884Z,42.03
2019-05-06T10:25:47.862Z,42.03
2019-05-06T10:26:47.874Z,42.85
2019-05-06T10:27:47.834Z,42.65
2019-05-06T10:28:47.829Z,42.03
2019-05-06T10:29:47.826Z,42.44
2019-05-06T10:30:47.806Z,41.73
2019-05-06T10:31:47.823Z,43.37
2019-05-06T10:32:47.841Z,42.96
2019-05-06T10:33:47.772Z,43.28
2019-05-06T10:34:47.757Z,43.59
2019-05-06T10:35:47.769Z,44.51
2019-05-06T10:36:47.767Z,44.12
2019-05-06T10:37:47.745Z,44.73
2019-05-06T10:38:47.728Z,44.73
2019-05-06T10:39:47.716Z,45.15
2019-05-06T10:40:59.683Z,45.64
2019-05-06T10:41:48.706Z,45.12
2019-05-06T10:42:47.676Z,45.94
2019-05-06T10:43:47.649Z,45.53
2019-05-06T10:44:47.642Z,44.82
2019-05-06T10:45:47.640Z,44.10
2019-05-06T10:46:47.631Z,44.38
2019-05-06T10:47:47.642Z,44.71
2019-05-06T10:48:47.619Z,44.00
2019-05-06T10:49:47.596Z,44.61
2019-05-06T10:50:47.594Z,44.53
2019-05-06T10:51:47.573Z,44.92
2019-05-06T10:52:47.613Z,45.33
2019-05-06T10:53:47.577Z,44.61
2019-05-06T10:54:47.532Z,44.82
2019-05-06T10:55:47.532Z,45.04
2019-05-06T10:56:52.647Z,44.51
2019-05-06T10:57:48.535Z,44.51
2019-05-06T10:58:47.496Z,43.79
2019-05-06T10:59:47.481Z,43.98
2019-05-06T11:00:47.468Z,43.67
2019-05-06T11:01:47.457Z,43.67
2019-05-06T11:02:47.472Z,42.65
2019-05-06T11:03:47.447Z,41.81
2019-05-06T11:04:47.421Z,42.32
2019-05-06T11:05:47.423Z,41.38
2019-05-06T11:06:47.424Z,41.38
2019-05-06T11:07:47.884Z,41.28
2019-05-06T11:08:47.384Z,40.55
2019-05-06T11:09:47.383Z,41.06
2019-05-06T11:10:47.366Z,40.85
2019-05-06T11:11:47.360Z,40.44
2019-05-06T11:12:47.409Z,40.44
2019-05-06T11:13:47.342Z,40.65
2019-05-06T11:14:47.324Z,40.42
2019-05-06T11:15:47.349Z,39.71
2019-05-06T11:16:47.293Z,39.71
2019-05-06T11:17:47.305Z,39.39
2019-05-06T11:18:47.270Z,38.89
2019-05-06T11:19:47.297Z,37.65
2019-05-06T11:20:47.262Z,37.57
2019-05-06T11:21:47.271Z,37.65
2019-05-06T11:22:47.239Z,36.94
2019-05-06T11:23:47.239Z,37.45
2019-05-06T11:24:47.208Z,36.94
2019-05-06T11:25:47.205Z,37.98
2019-05-06T11:26:47.192Z,38.69
2019-05-06T11:27:47.197Z,39.22
2019-05-06T11:28:47.166Z,40.05
2019-05-06T11:29:47.181Z,41.18
2019-05-06T11:30:47.136Z,40.69
2019-05-06T11:31:47.124Z,41.81
2019-05-06T11:32:47.125Z,41.81
2019-05-06T11:33:47.104Z,41.61
2019-05-06T11:34:47.089Z,42.24
2019-05-06T11:35:47.082Z,42.14
2019-05-06T11:36:47.071Z,41.32
2019-05-06T11:37:50.882Z,42.65
2019-05-06T11:38:48.529Z,42.03
2019-05-06T11:39:47.060Z,42.02
2019-05-06T11:40:47.046Z,42.02
2019-05-06T11:42:01.390Z,40.58
2019-05-06T11:42:48.030Z,40.48
2019-05-06T11:43:47.011Z,40.99
2019-05-06T11:44:46.991Z,40.26
2019-05-06T11:45:46.977Z,40.46
2019-05-06T11:46:46.963Z,40.44
2019-05-06T11:47:46.977Z,40.95
2019-05-06T11:48:46.936Z,40.42
2019-05-06T11:49:46.939Z,40.83
2019-05-06T11:50:46.919Z,40.42
2019-05-06T11:51:46.921Z,40.41
2019-05-06T11:52:46.921Z,40.10
2019-05-06T11:53:46.883Z,39.78
2019-05-06T11:54:46.869Z,39.87
2019-05-06T11:55:46.865Z,39.98
2019-05-06T11:56:50.977Z,39.98
2019-05-06T11:57:46.881Z,40.08
2019-05-06T11:58:46.829Z,40.69
2019-05-06T11:59:46.815Z,40.90
2019-05-06T12:00:46.805Z,40.98
2019-05-06T12:01:46.800Z,40.47
2019-05-06T12:02:48.793Z,40.06
2019-05-06T12:03:46.816Z,40.06
2019-05-06T12:04:46.763Z,38.84
2019-05-06T12:05:46.740Z,39.45
2019-05-06T12:06:46.739Z,38.74
2019-05-06T12:08:01.038Z,40.06
2019-05-06T12:08:47.706Z,39.76
2019-05-06T12:09:46.714Z,40.17
2019-05-06T12:10:46.694Z,39.35
2019-05-06T12:11:46.696Z,39.35
2019-05-06T12:12:46.704Z,39.35
2019-05-06T12:13:46.659Z,38.84
2019-05-06T12:14:46.646Z,39.25
2019-05-06T12:15:46.638Z,39.35
2019-05-06T12:16:46.656Z,41.08
2019-05-06T12:17:46.646Z,39.86
2019-05-06T12:18:46.606Z,39.45
2019-05-06T12:19:46.597Z,40.06
2019-05-06T12:20:46.604Z,40.14
2019-05-06T12:21:46.572Z,40.25
2019-05-06T12:22:46.577Z,40.25
2019-05-06T12:23:46.555Z,40.05
2019-05-06T12:24:46.537Z,40.05
2019-05-06T12:25:46.550Z,40.35
2019-05-06T12:26:46.512Z,40.12
2019-05-06T12:27:46.533Z,40.12
2019-05-06T12:28:46.490Z,39.82
2019-05-06T12:29:46.485Z,39.11
2019-05-06T12:30:46.471Z,39.51
2019-05-06T12:31:46.453Z,38.80
2019-05-06T12:32:46.484Z,38.70
2019-05-06T12:33:46.436Z,38.60
2019-05-06T12:34:46.430Z,37.79
2019-05-06T12:35:46.447Z,38.40
2019-05-06T12:36:46.409Z,38.07
2019-05-06T12:37:46.420Z,38.29
2019-05-06T12:38:46.385Z,37.66
2019-05-06T12:39:46.376Z,38.99
2019-05-06T12:40:46.358Z,38.99
2019-05-06T12:41:46.341Z,38.48
2019-05-06T12:42:46.360Z,38.15
2019-05-06T12:43:46.338Z,38.87
2019-05-06T12:44:46.312Z,38.78
2019-05-06T12:45:46.329Z,38.67
2019-05-06T12:46:46.296Z,38.58
2019-05-06T12:47:46.337Z,38.68
2019-05-06T12:48:46.273Z,39.31
2019-05-06T12:49:46.261Z,38.80
2019-05-06T12:50:46.256Z,38.80
2019-05-06T12:51:46.240Z,39.62
2019-05-06T12:52:46.259Z,39.62